createdAt,value
2023-05-12T00:00:11.681Z,37.12
2023-05-12T00:01:11.541Z,37.18
2023-05-12T00:02:11.594Z,37.12
2023-05-12T00:03:11.672Z,37.05
2023-05-12T00:04:11.909Z,37.11
2023-05-12T00:05:12.235Z,36.97
2023-05-12T00:06:11.809Z,37.15
2023-05-12T00:07:11.855Z,37.04
2023-05-12T00:08:11.897Z,37.04
2023-05-12T00:09:11.946Z,37.12
2023-05-12T00:10:12.037Z,37.07
2023-05-12T00:11:12.082Z,37.08
2023-05-12T00:12:12.118Z,37.11
2023-05-12T00:13:12.220Z,37.09
2023-05-12T00:14:12.184Z,37.10
2023-05-12T00:15:12.250Z,37.04
2023-05-12T00:16:12.377Z,37.03
2023-05-12T00:17:12.385Z,36.97
2023-05-12T00:18:12.433Z,37.03
2023-05-12T00:19:12.555Z,37.11
2023-05-12T00:20:12.511Z,37.02
2023-05-12T00:21:12.600Z,37.04
2023-05-12T00:22:12.656Z,37.03
2023-05-12T00:23:12.673Z,36.94
2023-05-12T00:24:13.765Z,37.03
2023-05-12T00:25:12.735Z,36.96
2023-05-12T00:26:13.188Z,36.98
2023-05-12T00:27:12.862Z,37.07
2023-05-12T00:28:12.897Z,36.99
2023-05-12T00:29:12.965Z,36.85
2023-05-12T00:30:13.019Z,36.99
2023-05-12T00:31:13.228Z,36.88
2023-05-12T00:32:13.084Z,37.08
2023-05-12T00:33:13.220Z,37.08
2023-05-12T00:34:13.145Z,36.98
2023-05-12T00:35:13.260Z,37.00
2023-05-12T00:36:13.726Z,37.03
2023-05-12T00:37:13.327Z,37.01
2023-05-12T00:38:13.364Z,36.98
2023-05-12T00:39:13.418Z,37.03
2023-05-12T00:40:13.470Z,36.96
2023-05-12T00:41:14.216Z,36.99
2023-05-12T00:42:13.564Z,36.98
2023-05-12T00:43:13.590Z,36.96
2023-05-12T00:44:13.659Z,37.03
2023-05-12T00:45:13.706Z,36.99
2023-05-12T00:46:13.860Z,36.88
2023-05-12T00:47:13.832Z,36.91
2023-05-12T00:48:13.906Z,37.02
2023-05-12T00:49:13.938Z,36.96
2023-05-12T00:50:13.988Z,36.89
2023-05-12T00:51:14.093Z,36.87
2023-05-12T00:52:14.120Z,36.88
2023-05-12T00:53:14.174Z,36.85
2023-05-12T00:54:14.223Z,36.96
2023-05-12T00:55:14.290Z,36.87
2023-05-12T00:56:14.701Z,36.95
2023-05-12T00:57:14.407Z,36.92
2023-05-12T00:58:14.435Z,36.92
2023-05-12T00:59:14.496Z,36.82
2023-05-12T01:00:14.561Z,36.98
2023-05-12T01:01:14.627Z,36.95
2023-05-12T01:02:14.667Z,36.90
2023-05-12T01:03:14.840Z,36.98
2023-05-12T01:04:14.763Z,36.87
2023-05-12T01:05:14.848Z,36.85
2023-05-12T01:06:14.871Z,36.95
2023-05-12T01:07:14.917Z,37.00
2023-05-12T01:08:14.963Z,36.86
2023-05-12T01:09:15.006Z,36.88
2023-05-12T01:10:15.079Z,36.98
2023-05-12T01:11:15.212Z,36.87
2023-05-12T01:12:15.148Z,36.87
2023-05-12T01:13:15.225Z,37.00
2023-05-12T01:14:15.262Z,36.96
2023-05-12T01:15:15.313Z,36.97
2023-05-12T01:16:15.356Z,36.91
2023-05-12T01:17:15.504Z,36.92
2023-05-12T01:18:15.516Z,36.94
2023-05-12T01:19:15.556Z,36.92
2023-05-12T01:20:15.580Z,36.85
2023-05-12T01:21:15.712Z,37.01
2023-05-12T01:22:15.676Z,36.82
2023-05-12T01:23:15.714Z,36.91
2023-05-12T01:24:15.782Z,36.93
2023-05-12T01:25:15.835Z,36.87
2023-05-12T01:26:15.864Z,36.90
2023-05-12T01:27:15.938Z,36.92
2023-05-12T01:28:15.999Z,36.88
2023-05-12T01:29:16.056Z,36.80
2023-05-12T01:30:16.119Z,36.89
2023-05-12T01:31:16.799Z,36.93
2023-05-12T01:32:16.211Z,36.85
2023-05-12T01:33:16.257Z,36.96
2023-05-12T01:34:16.321Z,36.85
2023-05-12T01:35:16.377Z,36.99
2023-05-12T01:36:16.447Z,36.96
2023-05-12T01:37:16.465Z,36.90
2023-05-12T01:38:16.542Z,36.90
2023-05-12T01:39:16.561Z,36.90
2023-05-12T01:40:16.641Z,36.83
2023-05-12T01:41:16.697Z,36.93
2023-05-12T01:42:16.761Z,36.96
2023-05-12T01:43:16.796Z,37.02
2023-05-12T01:44:16.840Z,36.97
2023-05-12T01:45:16.872Z,36.91
2023-05-12T01:46:17.231Z,36.95
2023-05-12T01:47:16.972Z,36.91
2023-05-12T01:48:17.020Z,36.87
2023-05-12T01:49:17.057Z,36.96
2023-05-12T01:50:17.207Z,36.99
2023-05-12T01:51:17.210Z,36.98
2023-05-12T01:52:17.188Z,36.91
2023-05-12T01:53:17.296Z,36.92
2023-05-12T01:54:17.328Z,37.07
2023-05-12T01:55:17.422Z,36.99
2023-05-12T01:56:17.471Z,36.93
2023-05-12T01:57:17.470Z,36.86
2023-05-12T01:58:17.533Z,36.97
2023-05-12T01:59:17.574Z,37.01
2023-05-12T02:00:17.920Z,36.95
2023-05-12T02:01:17.743Z,36.96
2023-05-12T02:02:17.806Z,36.89
2023-05-12T02:03:17.804Z,36.82
2023-05-12T02:04:17.867Z,36.85
2023-05-12T02:05:17.901Z,36.85
2023-05-12T02:06:18.196Z,36.93
2023-05-12T02:07:17.967Z,36.90
2023-05-12T02:08:18.051Z,36.77
2023-05-12T02:09:18.261Z,36.84
2023-05-12T02:10:18.497Z,36.95
2023-05-12T02:11:18.218Z,37.07
2023-05-12T02:12:18.301Z,36.99
2023-05-12T02:13:18.345Z,36.96
2023-05-12T02:14:18.433Z,36.92
2023-05-12T02:15:18.437Z,36.83
2023-05-12T02:16:18.765Z,37.01
2023-05-12T02:17:18.483Z,36.94
2023-05-12T02:18:18.555Z,36.87
2023-05-12T02:19:18.617Z,36.86
2023-05-12T02:20:18.882Z,36.99
2023-05-12T02:21:19.211Z,36.96
2023-05-12T02:22:18.754Z,37.01
2023-05-12T02:23:18.839Z,36.92
2023-05-12T02:24:18.849Z,36.89
2023-05-12T02:25:18.916Z,36.94
2023-05-12T02:26:18.968Z,36.93
2023-05-12T02:27:19.038Z,36.86
2023-05-12T02:28:19.076Z,36.82
2023-05-12T02:29:19.117Z,36.97
2023-05-12T02:30:19.336Z,36.92
2023-05-12T02:31:19.735Z,36.86
2023-05-12T02:32:19.344Z,36.87
2023-05-12T02:33:19.364Z,36.92
2023-05-12T02:34:19.456Z,36.87
2023-05-12T02:35:19.460Z,36.95
2023-05-12T02:36:19.513Z,37.00
2023-05-12T02:37:19.584Z,36.96
2023-05-12T02:38:19.652Z,36.96
2023-05-12T02:39:19.716Z,36.92
2023-05-12T02:40:19.912Z,36.87
2023-05-12T02:41:20.225Z,36.92
2023-05-12T02:42:19.854Z,36.89
2023-05-12T02:43:19.901Z,36.94
2023-05-12T02:44:19.977Z,36.99
2023-05-12T02:45:20.043Z,36.98
2023-05-12T02:46:20.306Z,36.94
2023-05-12T02:47:20.150Z,36.95
2023-05-12T02:48:20.200Z,37.04
2023-05-12T02:49:20.277Z,36.92
2023-05-12T02:50:20.470Z,36.86
2023-05-12T02:51:20.725Z,37.03
2023-05-12T02:52:20.402Z,37.00
2023-05-12T02:53:20.490Z,36.96
2023-05-12T02:54:20.539Z,37.00
2023-05-12T02:55:20.594Z,37.02
2023-05-12T02:56:20.751Z,36.98
2023-05-12T02:57:20.653Z,37.01
2023-05-12T02:58:20.743Z,36.96
2023-05-12T02:59:20.786Z,36.96
2023-05-12T03:00:21.026Z,36.98
2023-05-12T03:01:21.008Z,36.92
2023-05-12T03:02:21.009Z,36.87
2023-05-12T03:03:21.093Z,36.92
2023-05-12T03:04:21.069Z,36.91
2023-05-12T03:05:21.120Z,36.88
2023-05-12T03:06:21.250Z,36.85
2023-05-12T03:07:21.233Z,36.97
2023-05-12T03:08:21.409Z,36.89
2023-05-12T03:09:21.335Z,36.94
2023-05-12T03:10:21.522Z,36.92
2023-05-12T03:11:21.729Z,36.96
2023-05-12T03:12:21.546Z,37.00
2023-05-12T03:13:21.543Z,36.94
2023-05-12T03:14:21.612Z,36.92
2023-05-12T03:15:21.656Z,36.87
2023-05-12T03:16:21.761Z,36.94
2023-05-12T03:17:21.781Z,36.79
2023-05-12T03:18:21.829Z,36.89
2023-05-12T03:19:21.885Z,36.88
2023-05-12T03:20:22.175Z,36.89
2023-05-12T03:21:21.971Z,36.94
2023-05-12T03:22:22.241Z,36.95
2023-05-12T03:23:22.108Z,36.90
2023-05-12T03:24:22.150Z,36.90
2023-05-12T03:25:22.226Z,36.86
2023-05-12T03:26:22.300Z,36.95
2023-05-12T03:27:22.345Z,36.69
2023-05-12T03:28:22.393Z,36.85
2023-05-12T03:29:22.436Z,36.98
2023-05-12T03:30:22.487Z,36.86
2023-05-12T03:31:22.593Z,36.92
2023-05-12T03:32:22.649Z,36.80
2023-05-12T03:33:22.670Z,36.87
2023-05-12T03:34:22.701Z,36.87
2023-05-12T03:35:22.724Z,36.87
2023-05-12T03:36:22.811Z,36.89
2023-05-12T03:37:23.261Z,36.86
2023-05-12T03:38:22.888Z,36.83
2023-05-12T03:39:22.988Z,36.73
2023-05-12T03:40:23.229Z,36.82
2023-05-12T03:41:23.091Z,36.86
2023-05-12T03:42:23.273Z,36.81
2023-05-12T03:43:23.208Z,36.80
2023-05-12T03:44:23.279Z,36.86
2023-05-12T03:45:23.309Z,36.85
2023-05-12T03:46:23.483Z,36.70
2023-05-12T03:47:23.539Z,36.80
2023-05-12T03:48:23.544Z,36.76
2023-05-12T03:49:23.550Z,36.84
2023-05-12T03:50:23.597Z,36.86
2023-05-12T03:51:23.660Z,36.70
2023-05-12T03:52:25.253Z,36.73
2023-05-12T03:53:23.805Z,36.69
2023-05-12T03:54:23.867Z,36.68
2023-05-12T03:55:23.919Z,36.74
2023-05-12T03:56:23.977Z,36.69
2023-05-12T03:57:24.007Z,36.58
2023-05-12T03:58:24.076Z,36.75
2023-05-12T03:59:24.149Z,36.64
2023-05-12T04:00:24.213Z,36.65
2023-05-12T04:01:24.254Z,36.63
2023-05-12T04:02:24.860Z,36.62
2023-05-12T04:03:24.451Z,36.60
2023-05-12T04:04:24.421Z,36.63
2023-05-12T04:05:24.499Z,36.60
2023-05-12T04:06:24.562Z,36.53
2023-05-12T04:07:24.767Z,36.56
2023-05-12T04:08:24.623Z,36.52
2023-05-12T04:09:24.701Z,36.62
2023-05-12T04:10:24.749Z,36.67
2023-05-12T04:11:24.827Z,36.57
2023-05-12T04:12:24.916Z,36.55
2023-05-12T04:13:24.939Z,36.59
2023-05-12T04:14:35.220Z,36.53
2023-05-12T04:15:25.984Z,36.58
2023-05-12T04:16:25.018Z,36.47
2023-05-12T04:17:24.988Z,36.49
2023-05-12T04:18:24.978Z,36.50
2023-05-12T04:19:24.940Z,36.61
2023-05-12T04:20:24.929Z,36.54
2023-05-12T04:21:24.912Z,36.54
2023-05-12T04:22:25.826Z,36.60
2023-05-12T04:23:24.903Z,36.53
2023-05-12T04:24:24.937Z,36.57
2023-05-12T04:25:24.986Z,36.56
2023-05-12T04:26:25.091Z,36.63
2023-05-12T04:27:25.108Z,36.60
2023-05-12T04:28:25.230Z,36.48
2023-05-12T04:29:25.286Z,36.42
2023-05-12T04:30:25.293Z,36.52
2023-05-12T04:31:25.365Z,36.53
2023-05-12T04:32:25.480Z,36.55
2023-05-12T04:33:25.454Z,36.56
2023-05-12T04:34:25.528Z,36.57
2023-05-12T04:35:25.591Z,36.50
2023-05-12T04:36:25.656Z,36.47
2023-05-12T04:37:25.718Z,36.43
2023-05-12T04:38:25.748Z,36.35
2023-05-12T04:39:25.816Z,36.44
2023-05-12T04:40:25.889Z,36.38
2023-05-12T04:41:25.920Z,36.44
2023-05-12T04:42:26.292Z,36.42
2023-05-12T04:44:26.050Z,36.43
2023-05-12T04:45:26.062Z,36.45
2023-05-12T04:46:26.083Z,36.35
2023-05-12T04:47:26.333Z,36.46
2023-05-12T04:48:26.007Z,36.56
2023-05-12T04:49:26.041Z,36.51
2023-05-12T04:50:26.003Z,36.62
2023-05-12T04:51:26.031Z,36.56
2023-05-12T04:52:26.030Z,36.59
2023-05-12T04:53:25.994Z,36.53
2023-05-12T04:54:25.973Z,36.52
2023-05-12T04:55:25.965Z,36.60
2023-05-12T04:56:25.965Z,36.62
2023-05-12T04:57:26.294Z,36.59
2023-05-12T04:58:25.969Z,36.65
2023-05-12T04:59:25.925Z,36.73
2023-05-12T05:00:25.979Z,36.70
2023-05-12T05:01:25.984Z,36.68
2023-05-12T05:02:26.306Z,36.61
2023-05-12T05:03:26.030Z,36.64
2023-05-12T05:04:25.962Z,36.80
2023-05-12T05:05:25.908Z,36.75
2023-05-12T05:06:25.946Z,36.68
2023-05-12T05:07:26.299Z,36.74
2023-05-12T05:08:25.878Z,36.74
2023-05-12T05:09:25.866Z,36.62
2023-05-12T05:10:25.895Z,36.76
2023-05-12T05:11:25.871Z,36.73
2023-05-12T05:12:26.298Z,36.81
2023-05-12T05:13:25.850Z,36.78
2023-05-12T05:14:25.812Z,36.84
2023-05-12T05:15:25.881Z,36.81
2023-05-12T05:16:25.866Z,36.81
2023-05-12T05:17:26.432Z,36.85
2023-05-12T05:18:25.885Z,36.88
2023-05-12T05:19:39.168Z,36.96
2023-05-12T05:20:29.063Z,36.92
2023-05-12T05:21:25.765Z,36.94
2023-05-12T05:22:25.823Z,36.93
2023-05-12T05:23:25.837Z,36.93
2023-05-12T05:24:25.766Z,36.93
2023-05-12T05:25:25.803Z,37.04
2023-05-12T05:26:25.756Z,36.94
2023-05-12T05:27:25.817Z,36.95
2023-05-12T05:28:25.768Z,37.01
2023-05-12T05:29:25.775Z,37.10
2023-05-12T05:30:25.759Z,37.02
2023-05-12T05:31:25.802Z,37.12
2023-05-12T05:32:25.826Z,37.05
2023-05-12T05:33:25.686Z,36.96
2023-05-12T05:34:25.765Z,37.05
2023-05-12T05:35:25.710Z,37.05
2023-05-12T05:36:25.712Z,37.15
2023-05-12T05:37:25.817Z,37.05
2023-05-12T05:38:25.682Z,37.10
2023-05-12T05:39:25.683Z,37.10
2023-05-12T05:40:25.700Z,37.15
2023-05-12T05:41:25.636Z,37.05
2023-05-12T05:42:25.817Z,37.01
2023-05-12T05:43:25.617Z,37.07
2023-05-12T05:44:25.660Z,36.92
2023-05-12T05:45:28.110Z,36.99
2023-05-12T05:46:25.913Z,37.01
2023-05-12T05:47:25.882Z,36.94
2023-05-12T05:48:25.819Z,37.09
2023-05-12T05:49:25.849Z,36.98
2023-05-12T05:50:25.901Z,36.92
2023-05-12T05:51:25.962Z,37.05
2023-05-12T05:52:26.318Z,36.94
2023-05-12T05:53:26.138Z,36.80
2023-05-12T05:54:26.181Z,36.89
2023-05-12T05:55:26.224Z,36.98
2023-05-12T05:56:26.270Z,36.90
2023-05-12T05:57:26.772Z,36.90
2023-05-12T05:58:26.368Z,36.77
2023-05-12T05:59:26.443Z,37.23
2023-05-12T06:00:26.456Z,37.34
2023-05-12T06:01:26.547Z,37.61
2023-05-12T06:02:26.922Z,38.26
2023-05-12T06:03:26.743Z,37.68
2023-05-12T06:04:26.776Z,37.98
2023-05-12T06:05:26.673Z,38.19
2023-05-12T06:06:26.762Z,38.34
2023-05-12T06:07:26.748Z,38.44
2023-05-12T06:08:26.762Z,38.58
2023-05-12T06:09:26.806Z,38.64
2023-05-12T06:10:26.806Z,38.74
2023-05-12T06:11:26.819Z,38.80
2023-05-12T06:12:27.332Z,38.86
2023-05-12T06:13:26.875Z,38.95
2023-05-12T06:14:26.889Z,38.87
2023-05-12T06:15:26.858Z,39.11
2023-05-12T06:16:26.949Z,39.14
2023-05-12T06:17:26.925Z,38.91
2023-05-12T06:18:26.962Z,38.95
2023-05-12T06:19:26.932Z,38.97
2023-05-12T06:20:26.902Z,39.12
2023-05-12T06:21:26.942Z,39.31
2023-05-12T06:22:26.948Z,39.26
2023-05-12T06:23:26.939Z,39.31
2023-05-12T06:24:26.903Z,39.34
2023-05-12T06:25:26.909Z,39.52
2023-05-12T06:26:26.900Z,39.53
2023-05-12T06:27:27.277Z,39.56
2023-05-12T06:28:26.990Z,39.80
2023-05-12T06:29:26.955Z,39.76
2023-05-12T06:30:26.939Z,39.56
2023-05-12T06:31:27.035Z,39.88
2023-05-12T06:32:27.229Z,39.93
2023-05-12T06:33:27.071Z,40.04
2023-05-12T06:34:27.140Z,40.01
2023-05-12T06:35:27.214Z,40.23
2023-05-12T06:36:27.242Z,40.31
2023-05-12T06:37:27.825Z,40.35
2023-05-12T06:38:27.366Z,40.31
2023-05-12T06:39:27.423Z,40.32
2023-05-12T06:40:27.578Z,40.31
2023-05-12T06:41:28.508Z,40.41
2023-05-12T06:42:27.465Z,40.50
2023-05-12T06:43:27.436Z,40.48
2023-05-12T06:44:27.447Z,40.51
2023-05-12T06:45:27.452Z,40.48
2023-05-12T06:46:27.513Z,40.61
2023-05-12T06:47:27.857Z,40.65
2023-05-12T06:48:27.437Z,40.49
2023-05-12T06:49:27.538Z,40.53
2023-05-12T06:50:27.556Z,40.67
2023-05-12T06:51:27.664Z,40.80
2023-05-12T06:52:27.704Z,40.51
2023-05-12T06:53:27.811Z,40.46
2023-05-12T06:54:27.782Z,40.55
2023-05-12T06:55:27.887Z,40.01
2023-05-12T06:56:27.856Z,39.50
2023-05-12T06:57:27.940Z,39.41
2023-05-12T06:58:28.002Z,39.46
2023-05-12T06:59:28.116Z,39.10
2023-05-12T07:00:28.126Z,39.14
2023-05-12T07:01:28.181Z,39.27
2023-05-12T07:02:28.258Z,39.04
2023-05-12T07:03:28.409Z,38.90
2023-05-12T07:04:28.353Z,38.79
2023-05-12T07:05:28.377Z,38.87
2023-05-12T07:06:28.309Z,38.98
2023-05-12T07:07:28.349Z,39.14
2023-05-12T07:08:28.423Z,39.10
2023-05-12T07:09:28.460Z,39.46
2023-05-12T07:10:28.543Z,39.43
2023-05-12T07:11:28.579Z,39.40
2023-05-12T07:12:28.651Z,39.17
2023-05-12T07:13:28.725Z,38.88
2023-05-12T07:14:28.770Z,37.56
2023-05-12T07:15:30.037Z,38.37
2023-05-12T07:16:28.805Z,38.32
2023-05-12T07:17:28.790Z,38.41
2023-05-12T07:18:29.365Z,38.31
2023-05-12T07:19:28.763Z,38.30
2023-05-12T07:20:28.743Z,38.65
2023-05-12T07:21:28.733Z,38.33
2023-05-12T07:22:28.732Z,38.55
2023-05-12T07:23:28.833Z,38.38
2023-05-12T07:24:28.735Z,38.23
2023-05-12T07:25:28.787Z,37.91
2023-05-12T07:26:28.695Z,37.93
2023-05-12T07:27:28.690Z,37.77
2023-05-12T07:28:28.834Z,37.73
2023-05-12T07:29:28.682Z,37.81
2023-05-12T07:30:28.669Z,37.92
2023-05-12T07:31:28.873Z,38.06
2023-05-12T07:32:28.693Z,38.12
2023-05-12T07:33:28.857Z,38.19
2023-05-12T07:34:28.656Z,38.01
2023-05-12T07:35:28.653Z,38.21
2023-05-12T07:36:28.681Z,37.98
2023-05-12T07:37:28.631Z,38.18
2023-05-12T07:38:28.608Z,38.44
2023-05-12T07:39:28.634Z,38.42
2023-05-12T07:40:28.644Z,38.34
2023-05-12T07:41:28.561Z,38.09
2023-05-12T07:42:28.576Z,38.19
2023-05-12T07:43:28.582Z,38.55
2023-05-12T07:44:28.568Z,38.14
2023-05-12T07:45:28.562Z,38.38
2023-05-12T07:46:28.654Z,38.41
2023-05-12T07:47:28.553Z,38.39
2023-05-12T07:48:28.558Z,39.08
2023-05-12T07:49:28.525Z,38.89
2023-05-12T07:50:28.548Z,38.78
2023-05-12T07:51:28.545Z,38.91
2023-05-12T07:52:28.617Z,39.99
2023-05-12T07:53:28.831Z,39.23
2023-05-12T07:54:28.499Z,38.47
2023-05-12T07:55:29.316Z,39.34
2023-05-12T07:56:28.520Z,39.62
2023-05-12T07:57:28.555Z,39.55
2023-05-12T07:58:28.611Z,39.83
2023-05-12T07:59:28.563Z,40.63
2023-05-12T08:00:28.605Z,42.01
2023-05-12T08:01:28.663Z,41.57
2023-05-12T08:02:28.876Z,41.41
2023-05-12T08:03:28.719Z,39.82
2023-05-12T08:04:28.852Z,39.88
2023-05-12T08:05:28.757Z,40.27
2023-05-12T08:06:28.768Z,39.60
2023-05-12T08:07:28.826Z,40.08
2023-05-12T08:08:29.348Z,38.53
2023-05-12T08:09:28.912Z,39.04
2023-05-12T08:10:28.964Z,39.60
2023-05-12T08:11:28.984Z,38.95
2023-05-12T08:12:29.022Z,38.74
2023-05-12T08:13:29.347Z,38.36
2023-05-12T08:14:29.119Z,38.76
2023-05-12T08:15:29.139Z,38.24
2023-05-12T08:16:29.338Z,39.42
2023-05-12T08:17:29.610Z,39.85
2023-05-12T08:18:29.467Z,39.24
2023-05-12T08:19:29.329Z,39.16
2023-05-12T08:20:29.359Z,39.16
2023-05-12T08:21:29.391Z,38.77
2023-05-12T08:22:29.427Z,37.69
2023-05-12T08:23:29.864Z,37.72
2023-05-12T08:24:29.683Z,39.34
2023-05-12T08:25:29.608Z,39.47
2023-05-12T08:26:29.585Z,40.43
2023-05-12T08:27:29.709Z,39.85
2023-05-12T08:28:29.721Z,38.33
2023-05-12T08:29:29.748Z,38.04
2023-05-12T08:30:30.346Z,40.32
2023-05-12T08:31:29.899Z,38.77
2023-05-12T08:32:29.869Z,38.56
2023-05-12T08:33:29.881Z,38.22
2023-05-12T08:34:29.886Z,38.68
2023-05-12T08:35:29.932Z,38.68
2023-05-12T08:36:29.932Z,38.02
2023-05-12T08:37:31.378Z,38.24
2023-05-12T08:38:29.965Z,38.28
2023-05-12T08:39:29.966Z,39.20
2023-05-12T08:40:30.118Z,39.50
2023-05-12T08:41:29.939Z,39.29
2023-05-12T08:42:29.936Z,38.93
2023-05-12T08:43:29.927Z,38.49
2023-05-12T08:44:29.924Z,38.09
2023-05-12T08:45:29.912Z,38.08
2023-05-12T08:46:29.917Z,37.77
2023-05-12T08:47:29.939Z,37.35
2023-05-12T08:48:30.370Z,37.28
2023-05-12T08:49:29.853Z,37.07
2023-05-12T08:50:29.873Z,37.07
2023-05-12T08:51:30.857Z,36.85
2023-05-12T08:52:29.882Z,36.77
2023-05-12T08:53:29.861Z,36.85
2023-05-12T08:54:29.854Z,36.69
2023-05-12T08:55:33.844Z,36.46
2023-05-12T08:57:30.135Z,36.46
2023-05-12T08:58:40.463Z,36.28
2023-05-12T08:59:30.813Z,36.91
2023-05-12T09:00:29.833Z,37.77
2023-05-12T09:01:29.845Z,37.34
2023-05-12T09:02:41.149Z,37.95
2023-05-12T09:03:30.823Z,38.28
2023-05-12T09:04:29.819Z,38.32
2023-05-12T09:05:29.780Z,38.93
2023-05-12T09:06:29.768Z,39.03
2023-05-12T09:07:29.752Z,37.84
2023-05-12T09:08:29.749Z,37.27
2023-05-12T09:09:29.712Z,37.34
2023-05-12T09:10:34.400Z,38.10
2023-05-12T09:11:30.763Z,38.49
2023-05-12T09:12:29.752Z,38.52
2023-05-12T09:13:29.888Z,37.57
2023-05-12T09:14:29.693Z,37.31
2023-05-12T09:15:29.706Z,37.44
2023-05-12T09:16:29.730Z,37.58
2023-05-12T09:17:29.715Z,38.28
2023-05-12T09:18:29.752Z,38.31
2023-05-12T09:19:29.672Z,38.58
2023-05-12T09:20:31.786Z,39.34
2023-05-12T09:21:29.787Z,39.57
2023-05-12T09:22:29.828Z,38.54
2023-05-12T09:23:29.902Z,37.86
2023-05-12T09:24:29.863Z,37.85
2023-05-12T09:25:29.813Z,37.73
2023-05-12T09:26:29.821Z,37.95
2023-05-12T09:27:29.864Z,37.75
2023-05-12T09:28:29.925Z,37.44
2023-05-12T09:29:32.534Z,38.13
2023-05-12T09:30:29.922Z,37.44
2023-05-12T09:31:29.957Z,37.47
2023-05-12T09:32:29.959Z,37.32
2023-05-12T09:33:30.352Z,37.30
2023-05-12T09:34:29.857Z,37.29
2023-05-12T09:35:29.843Z,37.55
2023-05-12T09:36:29.837Z,37.59
2023-05-12T09:37:29.831Z,37.09
2023-05-12T09:38:29.830Z,36.97
2023-05-12T09:39:29.813Z,36.70
2023-05-12T09:40:29.861Z,37.18
2023-05-12T09:41:29.826Z,36.89
2023-05-12T09:42:29.795Z,36.94
2023-05-12T09:43:29.807Z,36.80
2023-05-12T09:44:29.815Z,36.81
2023-05-12T09:45:29.803Z,36.89
2023-05-12T09:46:29.954Z,36.46
2023-05-12T09:47:29.841Z,36.41
2023-05-12T09:48:29.772Z,36.10
2023-05-12T09:49:29.778Z,36.31
2023-05-12T09:50:40.866Z,36.74
2023-05-12T09:51:30.917Z,36.23
2023-05-12T09:52:29.899Z,36.11
2023-05-12T09:53:29.964Z,36.18
2023-05-12T09:54:30.412Z,36.08
2023-05-12T09:55:29.989Z,36.03
2023-05-12T09:56:29.997Z,36.02
2023-05-12T09:57:30.045Z,35.96
2023-05-12T09:58:30.040Z,35.99
2023-05-12T09:59:30.046Z,35.89
2023-05-12T10:00:36.982Z,35.90
2023-05-12T10:01:31.154Z,35.98
2023-05-12T10:02:30.182Z,35.81
2023-05-12T10:03:30.087Z,36.12
2023-05-12T10:04:30.113Z,36.06
2023-05-12T10:05:30.058Z,36.01
2023-05-12T10:06:30.038Z,36.01
2023-05-12T10:07:30.027Z,35.95
2023-05-12T10:08:30.062Z,35.90
2023-05-12T10:09:30.393Z,35.82
2023-05-12T10:10:30.019Z,35.82
2023-05-12T10:11:29.978Z,35.77
2023-05-12T10:12:30.041Z,35.73
2023-05-12T10:13:29.959Z,35.73
2023-05-12T10:14:30.391Z,35.66
2023-05-12T10:15:29.948Z,35.65
2023-05-12T10:16:30.023Z,35.71
2023-05-12T10:17:30.038Z,35.61
2023-05-12T10:18:30.008Z,35.63
2023-05-12T10:19:30.030Z,35.60
2023-05-12T10:20:30.054Z,35.68
2023-05-12T10:21:30.109Z,35.68
2023-05-12T10:22:30.142Z,35.67
2023-05-12T10:23:30.170Z,35.60
2023-05-12T10:24:30.395Z,35.65
2023-05-12T10:25:30.253Z,35.70
2023-05-12T10:26:30.256Z,35.67
2023-05-12T10:27:30.310Z,35.69
2023-05-12T10:28:30.346Z,35.64
2023-05-12T10:29:30.686Z,35.72
2023-05-12T10:30:30.451Z,35.81
2023-05-12T10:31:30.532Z,35.86
2023-05-12T10:32:30.625Z,35.86
2023-05-12T10:33:30.561Z,35.96
2023-05-12T10:34:30.905Z,35.95
2023-05-12T10:35:30.637Z,36.03
2023-05-12T10:36:30.709Z,35.92
2023-05-12T10:37:30.740Z,35.94
2023-05-12T10:38:30.827Z,35.85
2023-05-12T10:39:30.861Z,35.90
2023-05-12T10:40:30.876Z,35.83
2023-05-12T10:41:31.894Z,35.91
2023-05-12T10:42:30.943Z,35.86
2023-05-12T10:43:30.988Z,35.83
2023-05-12T10:44:30.995Z,35.82
2023-05-12T10:45:31.095Z,35.84
2023-05-12T10:46:31.162Z,35.90
2023-05-12T10:47:31.142Z,35.86
2023-05-12T10:48:31.199Z,35.94
2023-05-12T10:49:31.230Z,35.92
2023-05-12T10:50:31.263Z,35.87
2023-05-12T10:51:31.290Z,35.88
2023-05-12T10:52:31.298Z,35.90
2023-05-12T10:53:45.250Z,36.02
2023-05-12T10:54:32.364Z,35.95
2023-05-12T10:55:31.410Z,35.99
2023-05-12T10:56:31.659Z,36.04
2023-05-12T10:57:31.734Z,35.94
2023-05-12T10:58:31.699Z,35.98
2023-05-12T11:00:31.580Z,35.85
2023-05-12T11:01:31.717Z,35.77
2023-05-12T11:02:32.636Z,35.71
2023-05-12T11:03:32.154Z,35.68
2023-05-12T11:04:31.404Z,35.66
2023-05-12T11:05:31.931Z,35.60
2023-05-12T11:06:31.772Z,35.68
2023-05-12T11:07:32.878Z,35.59
2023-05-12T11:08:32.355Z,35.56
2023-05-12T11:09:31.490Z,35.51
2023-05-12T11:10:31.434Z,35.50
2023-05-12T11:11:32.343Z,35.56
2023-05-12T11:12:31.430Z,35.58
2023-05-12T11:13:31.474Z,35.55
2023-05-12T11:14:31.922Z,35.59
2023-05-12T11:15:31.553Z,35.54
2023-05-12T11:16:31.607Z,35.48
2023-05-12T11:17:31.660Z,35.52
2023-05-12T11:18:31.741Z,35.50
2023-05-12T11:19:31.691Z,35.45
2023-05-12T11:20:31.812Z,35.53
2023-05-12T11:21:31.784Z,35.55
2023-05-12T11:22:31.859Z,35.50
2023-05-12T11:23:31.890Z,35.52
2023-05-12T11:24:32.896Z,35.72
2023-05-12T11:25:32.032Z,35.60
2023-05-12T11:26:31.982Z,35.66
2023-05-12T11:27:32.041Z,35.64
2023-05-12T11:28:32.112Z,36.00
2023-05-12T11:29:32.125Z,35.80
2023-05-12T11:30:32.165Z,35.82
2023-05-12T11:31:32.260Z,35.80
2023-05-12T11:32:32.355Z,35.79
2023-05-12T11:33:32.302Z,35.80
2023-05-12T11:34:32.389Z,35.77
2023-05-12T11:35:32.378Z,35.80
2023-05-12T11:36:32.494Z,35.76
2023-05-12T11:37:32.474Z,35.75
2023-05-12T11:38:32.492Z,35.73
2023-05-12T11:39:32.611Z,35.79
2023-05-12T11:40:32.608Z,35.74
2023-05-12T11:41:32.637Z,35.80
2023-05-12T11:42:32.718Z,35.78
2023-05-12T11:43:32.734Z,35.78
2023-05-12T11:44:32.813Z,35.76
2023-05-12T11:45:32.928Z,35.81
2023-05-12T11:46:32.893Z,35.78
2023-05-12T11:47:32.948Z,35.73
2023-05-12T11:48:32.992Z,35.75
2023-05-12T11:49:33.048Z,35.76
2023-05-12T11:50:33.048Z,35.76
2023-05-12T11:51:33.130Z,35.75
2023-05-12T11:52:33.197Z,35.73
2023-05-12T11:53:33.206Z,35.82
2023-05-12T11:54:33.406Z,35.73
2023-05-12T11:55:33.318Z,35.79
2023-05-12T11:56:33.352Z,35.77
2023-05-12T11:57:33.368Z,35.82
2023-05-12T11:58:35.574Z,35.86
2023-05-12T11:59:33.481Z,35.79
2023-05-12T12:00:33.528Z,35.82
2023-05-12T12:01:33.558Z,35.84
2023-05-12T12:02:33.851Z,35.85
2023-05-12T12:03:33.696Z,35.88
2023-05-12T12:04:33.874Z,35.91
2023-05-12T12:05:33.712Z,35.87
2023-05-12T12:06:33.772Z,35.93
2023-05-12T12:07:33.845Z,35.92
2023-05-12T12:08:33.873Z,35.94
2023-05-12T12:09:33.896Z,35.89
2023-05-12T12:10:33.949Z,35.92
2023-05-12T12:11:33.967Z,35.89
2023-05-12T12:12:34.049Z,35.88
2023-05-12T12:13:34.064Z,35.98
2023-05-12T12:14:34.109Z,35.93
2023-05-12T12:15:34.182Z,35.96
2023-05-12T12:16:34.272Z,35.96
2023-05-12T12:17:34.323Z,35.98
2023-05-12T12:18:34.281Z,35.99
2023-05-12T12:19:34.305Z,35.98
2023-05-12T12:20:34.347Z,36.00
2023-05-12T12:21:34.388Z,35.96
2023-05-12T12:22:34.838Z,35.84
2023-05-12T12:23:44.082Z,36.05
2023-05-12T12:24:35.973Z,36.04
2023-05-12T12:25:34.490Z,36.01
2023-05-12T12:26:34.483Z,36.06
2023-05-12T12:27:34.484Z,36.04
2023-05-12T12:28:34.482Z,36.10
2023-05-12T12:29:34.985Z,36.04
2023-05-12T12:30:34.448Z,35.93
2023-05-12T12:31:34.527Z,35.99
2023-05-12T12:32:34.491Z,35.91
2023-05-12T12:33:34.425Z,35.97
2023-05-12T12:34:34.430Z,36.00
2023-05-12T12:35:34.424Z,35.97
2023-05-12T12:36:34.470Z,35.99
2023-05-12T12:37:34.499Z,36.01
2023-05-12T12:38:34.532Z,36.06
2023-05-12T12:39:34.583Z,36.01
2023-05-12T12:40:34.770Z,36.01
2023-05-12T12:41:34.652Z,36.02
2023-05-12T12:42:34.678Z,36.06
2023-05-12T12:43:34.714Z,36.01
2023-05-12T12:44:34.933Z,36.06
2023-05-12T12:45:34.797Z,36.00
2023-05-12T12:46:34.837Z,36.01
2023-05-12T12:47:34.885Z,36.06
2023-05-12T12:48:34.920Z,36.00
2023-05-12T12:49:34.993Z,35.90
2023-05-12T12:50:34.999Z,35.95
2023-05-12T12:51:45.061Z,35.90
2023-05-12T12:52:36.026Z,35.97
2023-05-12T12:53:35.014Z,35.96
2023-05-12T12:54:35.029Z,35.94
2023-05-12T12:55:35.035Z,35.95